createdAt,value
2022-12-08T00:01:10.630Z,3.08
2022-12-08T00:03:37.617Z,3.07
2022-12-08T00:06:24.344Z,3.05
2022-12-08T00:09:10.145Z,3.00
2022-12-08T00:11:36.802Z,2.97
2022-12-08T00:14:03.345Z,2.92
2022-12-08T00:16:29.885Z,2.92
2022-12-08T00:18:56.503Z,2.92
2022-12-08T00:21:22.877Z,2.91
2022-12-08T00:23:49.474Z,2.91
2022-12-08T00:26:16.271Z,2.89
2022-12-08T00:28:42.700Z,2.88
2022-12-08T00:31:11.149Z,2.89
2022-12-08T00:33:38.165Z,2.91
2022-12-08T00:36:13.680Z,2.93
2022-12-08T00:38:41.635Z,2.96
2022-12-08T00:41:13.265Z,2.97
2022-12-08T00:43:39.814Z,2.98
2022-12-08T00:46:06.445Z,3.01
2022-12-08T00:48:32.943Z,3.00
2022-12-08T00:50:59.614Z,3.01
2022-12-08T00:53:26.081Z,3.02
2022-12-08T00:55:52.646Z,3.03
2022-12-08T00:58:19.051Z,3.01
2022-12-08T01:00:45.527Z,2.99
2022-12-08T01:03:12.975Z,2.96
2022-12-08T01:05:39.608Z,2.88
2022-12-08T01:08:07.110Z,2.82
2022-12-08T01:10:37.540Z,2.74
2022-12-08T01:13:04.415Z,2.71
2022-12-08T01:15:31.009Z,2.65
2022-12-08T01:17:57.538Z,2.56
2022-12-08T01:20:24.474Z,2.48
2022-12-08T01:22:50.978Z,2.41
2022-12-08T01:25:17.640Z,2.30
2022-12-08T01:27:44.126Z,2.24
2022-12-08T01:30:11.000Z,2.23
2022-12-08T01:32:37.924Z,2.20
2022-12-08T01:35:04.655Z,2.17
2022-12-08T01:37:31.363Z,2.12
2022-12-08T01:39:57.763Z,2.10
2022-12-08T01:50:30.562Z,1.93
2022-12-08T01:53:09.183Z,1.88
2022-12-08T01:55:42.643Z,1.85
2022-12-08T01:58:26.993Z,1.80
2022-12-08T02:00:53.999Z,1.74
2022-12-08T02:03:31.584Z,1.69
2022-12-08T02:05:58.555Z,1.64
2022-12-08T02:08:26.667Z,1.60
2022-12-08T02:10:53.115Z,1.54
2022-12-08T02:13:23.177Z,1.47
2022-12-08T02:16:03.784Z,1.42
2022-12-08T02:19:33.255Z,1.35
2022-12-08T02:22:12.797Z,1.30
2022-12-08T02:24:42.217Z,1.28
2022-12-08T02:27:41.185Z,1.25
2022-12-08T02:30:22.836Z,1.19
2022-12-08T02:33:25.545Z,1.15
2022-12-08T02:36:06.161Z,1.09
2022-12-08T02:39:00.617Z,1.05
2022-12-08T02:41:46.431Z,1.01
2022-12-08T02:44:22.289Z,0.96
2022-12-08T02:46:54.858Z,0.88
2022-12-08T02:49:21.186Z,0.84
2022-12-08T02:54:29.251Z,0.76
2022-12-08T02:57:24.121Z,0.72
2022-12-08T03:00:03.536Z,0.68
2022-12-08T03:02:42.519Z,0.62
2022-12-08T03:05:53.625Z,0.60
2022-12-08T03:08:41.999Z,0.55
2022-12-08T03:11:14.932Z,0.51
2022-12-08T03:13:46.041Z,0.46
2022-12-08T03:16:17.396Z,0.44
2022-12-08T03:18:51.032Z,0.42
2022-12-08T03:21:19.397Z,0.42
2022-12-08T03:23:47.505Z,0.42
2022-12-08T03:26:24.988Z,0.41
2022-12-08T03:28:51.544Z,0.40
2022-12-08T03:31:19.418Z,0.39
2022-12-08T03:33:49.679Z,0.38
2022-12-08T03:36:16.278Z,0.40
2022-12-08T03:38:46.133Z,0.43
2022-12-08T03:41:18.540Z,0.47
2022-12-08T03:43:49.170Z,0.55
2022-12-08T03:48:49.502Z,0.56
2022-12-08T04:07:20.414Z,0.86
2022-12-08T04:09:46.731Z,0.88
2022-12-08T04:12:13.046Z,0.89
2022-12-08T04:28:09.314Z,0.97
2022-12-08T04:30:35.807Z,0.93
2022-12-08T04:38:14.979Z,0.96
2022-12-08T05:21:03.248Z,1.26
2022-12-08T06:20:35.204Z,1.85
2022-12-08T06:49:54.719Z,1.81
2022-12-08T06:52:21.060Z,1.83
2022-12-08T06:54:47.508Z,1.84
2022-12-08T06:57:13.861Z,1.88
2022-12-08T06:59:40.220Z,1.90
2022-12-08T07:02:07.022Z,1.91
2022-12-08T07:04:33.417Z,1.96
2022-12-08T07:06:59.738Z,1.98
2022-12-08T07:09:26.122Z,2.04
2022-12-08T07:11:52.478Z,2.02
2022-12-08T07:14:20.391Z,2.06
2022-12-08T07:16:47.122Z,2.09
2022-12-08T07:19:13.481Z,2.12
2022-12-08T07:21:39.924Z,2.13
2022-12-08T07:24:06.542Z,2.14
2022-12-08T07:26:32.873Z,2.15
2022-12-08T07:29:00.030Z,2.19
2022-12-08T07:31:27.835Z,2.17
2022-12-08T07:33:55.116Z,2.15
2022-12-08T07:36:21.871Z,2.09
2022-12-08T07:38:48.835Z,2.15
2022-12-08T07:41:21.678Z,2.23
2022-12-08T07:43:49.938Z,2.32
2022-12-08T07:46:19.439Z,2.35
2022-12-08T07:48:46.326Z,2.37
2022-12-08T07:51:14.748Z,2.38
2022-12-08T07:53:43.873Z,2.40
2022-12-08T07:56:13.245Z,2.38
2022-12-08T07:58:40.880Z,2.38
2022-12-08T08:01:22.214Z,2.31
2022-12-08T08:03:49.196Z,2.34
2022-12-08T08:06:15.646Z,2.30
2022-12-08T08:08:41.973Z,2.26
2022-12-08T08:11:14.577Z,2.27
2022-12-08T08:13:45.786Z,2.31
2022-12-08T08:16:13.596Z,2.26
2022-12-08T08:18:40.637Z,2.19
2022-12-08T08:21:43.343Z,2.19
2022-12-08T08:23:54.068Z,2.17
2022-12-08T08:26:20.432Z,2.24
2022-12-08T08:28:48.090Z,2.23
2022-12-08T08:31:14.680Z,2.30
2022-12-08T08:33:41.122Z,2.30
2022-12-08T08:36:10.809Z,2.37
2022-12-08T08:38:40.092Z,2.37
2022-12-08T08:41:11.111Z,2.37
2022-12-08T08:43:38.905Z,2.39
2022-12-08T08:46:06.742Z,2.42
2022-12-08T08:48:33.605Z,2.43
2022-12-08T08:51:07.990Z,2.41
2022-12-08T08:53:34.364Z,2.47
2022-12-08T08:56:02.852Z,2.50
2022-12-08T08:58:29.420Z,2.53
2022-12-08T09:00:56.435Z,2.54
2022-12-08T09:03:22.829Z,2.59
2022-12-08T09:05:50.541Z,2.62
2022-12-08T09:08:17.093Z,2.66
2022-12-08T09:10:43.513Z,2.75
2022-12-08T09:13:09.832Z,2.84
2022-12-08T09:15:36.246Z,2.91
2022-12-08T09:18:02.734Z,2.95
2022-12-08T09:20:29.151Z,2.95
2022-12-08T09:22:55.501Z,2.99
2022-12-08T09:25:21.841Z,3.04
2022-12-08T09:27:48.183Z,3.11
2022-12-08T09:30:14.683Z,3.18
2022-12-08T09:32:41.040Z,3.20
2022-12-08T09:35:07.966Z,3.29
2022-12-08T09:37:34.379Z,3.31
2022-12-08T09:40:00.814Z,3.32
2022-12-08T09:42:33.279Z,3.35
2022-12-08T09:45:03.980Z,3.33
2022-12-08T09:47:39.574Z,3.38
2022-12-08T09:50:30.383Z,3.43
2022-12-08T09:53:09.125Z,3.36
2022-12-08T09:55:45.547Z,3.45
2022-12-08T09:58:23.640Z,3.51
2022-12-08T10:00:50.005Z,3.55
2022-12-08T10:03:17.132Z,3.58
2022-12-08T10:05:54.671Z,3.58
2022-12-08T10:08:28.263Z,3.60
2022-12-08T10:10:59.258Z,3.67
2022-12-08T10:14:04.022Z,3.67
2022-12-08T10:16:42.320Z,3.72
2022-12-08T10:19:17.588Z,3.81
2022-12-08T10:21:44.813Z,3.89
2022-12-08T10:24:33.452Z,3.91
2022-12-08T10:27:01.511Z,3.89
2022-12-08T10:29:28.075Z,3.98
2022-12-08T10:31:58.540Z,4.10
2022-12-08T10:34:25.005Z,4.22
2022-12-08T10:36:52.926Z,4.29
2022-12-08T10:39:37.072Z,4.32
2022-12-08T10:42:13.426Z,4.29
2022-12-08T10:45:03.801Z,4.26
2022-12-08T10:47:35.240Z,4.30
2022-12-08T10:50:09.847Z,4.31
2022-12-08T10:52:40.507Z,4.36
2022-12-08T10:55:18.146Z,4.45
2022-12-08T10:57:44.855Z,4.52
2022-12-08T11:00:20.633Z,4.61
2022-12-08T11:02:59.293Z,4.77
2022-12-08T11:05:33.230Z,4.90
2022-12-08T11:08:00.513Z,5.02
2022-12-08T11:10:42.456Z,5.20
2022-12-08T11:13:18.504Z,5.37
2022-12-08T11:15:46.486Z,5.52
2022-12-08T11:18:43.386Z,5.72
2022-12-08T11:21:18.408Z,5.84
2022-12-08T11:23:50.224Z,5.83
2022-12-08T11:26:35.472Z,5.89
2022-12-08T11:29:02.012Z,5.89
2022-12-08T11:31:34.419Z,5.90
2022-12-08T11:34:03.080Z,5.86
2022-12-08T11:36:33.756Z,5.90
2022-12-08T11:39:02.697Z,5.88
2022-12-08T11:41:36.772Z,6.00
2022-12-08T11:44:34.061Z,6.00
2022-12-08T11:47:24.282Z,6.11
2022-12-08T11:49:56.669Z,6.14
2022-12-08T11:52:46.604Z,5.93
2022-12-08T11:55:49.983Z,5.72
2022-12-08T11:58:21.386Z,5.64
2022-12-08T12:00:50.401Z,5.61
2022-12-08T12:03:34.021Z,5.45
2022-12-08T12:06:53.680Z,5.43
2022-12-08T12:09:36.357Z,5.41
2022-12-08T12:12:29.297Z,5.48
2022-12-08T12:15:27.197Z,5.40
2022-12-08T12:17:59.898Z,5.43
2022-12-08T12:20:52.933Z,5.35
2022-12-08T12:23:37.154Z,5.14
2022-12-08T12:26:07.136Z,4.98
2022-12-08T12:28:49.559Z,4.86
2022-12-08T12:31:21.882Z,4.79
2022-12-08T12:33:50.298Z,4.74
2022-12-08T12:36:17.000Z,4.74
2022-12-08T12:39:04.170Z,4.69
2022-12-08T12:42:04.209Z,4.67
2022-12-08T12:44:33.375Z,4.65
2022-12-08T12:47:01.515Z,4.69
2022-12-08T12:49:40.091Z,4.66
2022-12-08T12:52:31.794Z,4.61
2022-12-08T12:54:58.331Z,4.58
2022-12-08T12:57:36.610Z,4.59
2022-12-08T13:00:02.894Z,4.52
2022-12-08T13:02:37.982Z,4.50
2022-12-08T13:05:13.241Z,4.53
2022-12-08T13:08:02.867Z,4.58
2022-12-08T13:10:39.181Z,4.63
2022-12-08T13:13:07.429Z,4.58
2022-12-08T13:15:55.718Z,4.52
2022-12-08T13:18:29.037Z,4.53
2022-12-08T13:21:10.654Z,4.50
2022-12-08T13:23:36.908Z,4.55
2022-12-08T13:26:09.549Z,4.58
2022-12-08T13:28:58.766Z,4.62
2022-12-08T13:31:50.096Z,4.59
2022-12-08T13:34:25.595Z,4.54
2022-12-08T13:37:15.610Z,4.53
2022-12-08T13:39:51.084Z,4.51
2022-12-08T13:42:29.411Z,4.53
2022-12-08T13:48:44.663Z,4.35
2022-12-08T13:57:10.441Z,4.43
2022-12-08T13:59:43.747Z,4.47
2022-12-08T14:02:45.307Z,4.42
2022-12-08T14:05:19.543Z,4.38
2022-12-08T14:07:51.792Z,4.37
2022-12-08T14:10:22.138Z,4.34
2022-12-08T14:12:55.410Z,4.27
2022-12-08T14:15:22.443Z,4.17
2022-12-08T14:17:53.893Z,4.15
2022-12-08T14:20:26.456Z,4.14
2022-12-08T14:22:54.387Z,4.15
2022-12-08T14:25:22.300Z,4.11
2022-12-08T14:27:49.217Z,4.13
2022-12-08T14:30:19.184Z,4.10
2022-12-08T14:32:53.972Z,4.08
2022-12-08T14:35:22.729Z,4.13
2022-12-08T14:37:52.862Z,4.13
2022-12-08T14:40:23.556Z,4.10
2022-12-08T14:42:54.179Z,4.13
2022-12-08T14:45:21.271Z,4.12
2022-12-08T14:47:48.525Z,4.12
2022-12-08T14:50:41.615Z,4.08
2022-12-08T14:53:14.383Z,4.07
2022-12-08T14:55:40.853Z,4.03
2022-12-08T14:58:07.330Z,4.03
2022-12-08T15:00:34.077Z,4.04
2022-12-08T15:03:06.850Z,4.03
2022-12-08T15:05:33.370Z,4.06
2022-12-08T15:08:02.821Z,4.00
2022-12-08T15:10:37.981Z,4.03
2022-12-08T15:13:22.404Z,4.07
2022-12-08T15:15:57.671Z,4.12
2022-12-08T15:18:41.236Z,4.15
2022-12-08T15:21:09.416Z,4.16
2022-12-08T15:23:44.736Z,4.16
2022-12-08T15:26:21.027Z,4.17
2022-12-08T15:28:47.551Z,4.16
2022-12-08T15:31:15.350Z,4.19
2022-12-08T15:33:41.969Z,4.19
2022-12-08T15:36:09.529Z,4.22
2022-12-08T15:38:37.024Z,4.23
2022-12-08T15:41:04.535Z,4.26
2022-12-08T15:43:32.116Z,4.27
2022-12-08T15:46:00.048Z,4.23
2022-12-08T15:48:29.007Z,4.16
2022-12-08T15:50:56.253Z,4.06
2022-12-08T15:53:22.703Z,4.01
2022-12-08T15:56:18.866Z,4.01
2022-12-08T15:58:54.256Z,3.94
2022-12-08T16:01:21.977Z,3.93
2022-12-08T16:09:42.176Z,3.96
2022-12-08T16:13:40.233Z,3.96
2022-12-08T16:18:17.264Z,3.94
2022-12-08T16:21:07.454Z,3.93
2022-12-08T16:23:45.883Z,3.87
2022-12-08T16:26:44.407Z,3.86
2022-12-08T16:29:05.339Z,3.85
2022-12-08T16:31:32.301Z,3.86
2022-12-08T16:33:58.799Z,3.85
2022-12-08T16:36:25.237Z,3.82
2022-12-08T16:38:51.680Z,3.82
2022-12-08T16:41:36.922Z,3.79
2022-12-08T16:44:05.951Z,3.73
2022-12-08T16:46:32.648Z,3.72
2022-12-08T16:48:59.224Z,3.75
2022-12-08T16:51:27.391Z,3.78
2022-12-08T16:53:58.209Z,3.81
2022-12-08T16:56:30.593Z,3.81
2022-12-08T16:58:58.992Z,3.83
2022-12-08T17:01:25.624Z,3.86
2022-12-08T17:04:14.740Z,3.88
2022-12-08T17:06:38.423Z,3.88
2022-12-08T17:09:05.101Z,3.86
2022-12-08T17:11:36.289Z,3.82
2022-12-08T17:14:09.186Z,3.80
2022-12-08T17:16:35.846Z,3.80
2022-12-08T17:19:02.336Z,3.76
2022-12-08T17:21:28.804Z,3.76
2022-12-08T17:23:55.231Z,3.76
2022-12-08T17:26:21.532Z,3.72
2022-12-08T17:29:03.237Z,3.72
2022-12-08T17:31:32.261Z,3.74
2022-12-08T17:34:03.335Z,3.77
2022-12-08T17:36:29.735Z,3.79
2022-12-08T17:38:57.017Z,3.79
2022-12-08T17:41:23.488Z,3.80
2022-12-08T17:43:49.844Z,3.80
2022-12-08T17:46:18.403Z,3.79
2022-12-08T17:48:45.007Z,3.81
2022-12-08T17:51:11.552Z,3.82
2022-12-08T17:53:40.561Z,3.81
2022-12-08T17:56:14.314Z,3.81
2022-12-08T17:58:40.563Z,3.80
2022-12-08T18:01:08.710Z,3.80
2022-12-08T18:03:35.699Z,3.79
2022-12-08T18:06:11.172Z,3.78
2022-12-08T18:08:37.968Z,3.77
2022-12-08T18:11:05.597Z,3.76
2022-12-08T18:13:31.894Z,3.71
2022-12-08T18:15:58.424Z,3.69
2022-12-08T18:18:24.895Z,3.69
2022-12-08T18:20:51.237Z,3.69
2022-12-08T18:23:18.522Z,3.70
2022-12-08T18:25:45.108Z,3.66
2022-12-08T18:28:11.501Z,3.64
2022-12-08T18:30:38.901Z,3.57
2022-12-08T18:33:05.825Z,3.55
2022-12-08T18:35:32.421Z,3.53
2022-12-08T18:38:00.102Z,3.56
2022-12-08T18:40:29.300Z,3.54
2022-12-08T18:42:55.751Z,3.51
2022-12-08T18:45:22.881Z,3.51
2022-12-08T18:47:51.225Z,3.50
2022-12-08T18:50:19.379Z,3.47
2022-12-08T18:52:46.862Z,3.41
2022-12-08T18:55:14.436Z,3.40
2022-12-08T18:57:43.028Z,3.41
2022-12-08T19:00:13.573Z,3.41
2022-12-08T19:02:40.282Z,3.44
2022-12-08T19:05:08.238Z,3.42
2022-12-08T19:07:35.188Z,3.39
2022-12-08T19:10:01.693Z,3.35
2022-12-08T19:12:28.037Z,3.28
2022-12-08T19:14:54.539Z,3.23
2022-12-08T19:17:21.399Z,3.11
2022-12-08T19:19:47.722Z,2.99
2022-12-08T19:22:14.262Z,2.82
2022-12-08T19:24:40.752Z,2.66
2022-12-08T19:27:07.174Z,2.65
2022-12-08T19:29:33.593Z,2.61
2022-12-08T19:32:00.386Z,2.56
2022-12-08T19:34:27.002Z,2.46
2022-12-08T19:36:53.517Z,2.38
2022-12-08T19:39:40.660Z,2.33
2022-12-08T19:42:34.181Z,2.31
2022-12-08T19:45:11.913Z,2.30
2022-12-08T19:47:39.270Z,2.29
2022-12-08T19:50:25.866Z,2.26
2022-12-08T19:52:52.670Z,2.17
2022-12-08T19:55:19.104Z,2.15
2022-12-08T19:57:45.467Z,2.14
2022-12-08T20:00:12.859Z,2.12
2022-12-08T20:02:39.247Z,2.16
2022-12-08T20:05:06.413Z,2.20
2022-12-08T20:07:33.221Z,2.15
2022-12-08T20:09:59.723Z,2.13
2022-12-08T20:12:26.127Z,2.15
2022-12-08T20:14:52.516Z,2.14
2022-12-08T20:17:19.488Z,2.15
2022-12-08T20:19:46.040Z,2.17
2022-12-08T20:22:12.402Z,2.17
2022-12-08T20:24:38.859Z,2.17
2022-12-08T20:27:05.207Z,2.13
2022-12-08T20:29:31.788Z,2.11
2022-12-08T20:31:58.406Z,2.02
2022-12-08T20:34:24.815Z,1.98
2022-12-08T20:36:51.345Z,1.94
2022-12-08T20:39:18.731Z,1.92
2022-12-08T20:41:46.599Z,1.91
2022-12-08T20:44:13.064Z,1.94
2022-12-08T20:46:40.480Z,1.94
2022-12-08T20:49:09.333Z,1.90
2022-12-08T20:51:35.838Z,1.84
2022-12-08T20:54:04.389Z,1.81
2022-12-08T20:56:34.051Z,1.77
2022-12-08T20:59:00.728Z,1.76
2022-12-08T21:01:27.246Z,1.77
2022-12-08T21:03:54.435Z,1.77
2022-12-08T21:06:23.383Z,1.72
2022-12-08T21:08:51.105Z,1.67
2022-12-08T21:11:17.583Z,1.64
2022-12-08T21:13:44.587Z,1.67
2022-12-08T21:16:15.619Z,1.70
2022-12-08T21:18:42.521Z,1.68
2022-12-08T21:21:12.327Z,1.66
2022-12-08T21:23:38.962Z,1.69
2022-12-08T21:26:17.526Z,1.68
2022-12-08T21:28:45.037Z,1.66
2022-12-08T21:31:13.987Z,1.64
2022-12-08T21:33:41.232Z,1.62
2022-12-08T21:36:12.458Z,1.58
2022-12-08T21:38:39.785Z,1.55
2022-12-08T21:41:12.936Z,1.54
2022-12-08T21:43:39.759Z,1.52
2022-12-08T21:46:06.262Z,1.49
2022-12-08T21:48:32.917Z,1.48
2022-12-08T21:51:08.671Z,1.51
2022-12-08T21:53:35.149Z,1.48
2022-12-08T21:56:01.766Z,1.48
2022-12-08T21:58:28.555Z,1.50
2022-12-08T22:00:55.176Z,1.52
2022-12-08T22:03:21.888Z,1.59
2022-12-08T22:05:48.716Z,1.70
2022-12-08T22:08:15.309Z,1.81
2022-12-08T22:10:47.268Z,1.86
2022-12-08T22:13:13.927Z,1.92
2022-12-08T22:15:40.299Z,1.94
2022-12-08T22:18:07.006Z,1.94
2022-12-08T22:20:33.481Z,1.94
2022-12-08T22:23:00.158Z,1.90
2022-12-08T22:25:26.850Z,1.75
2022-12-08T22:27:53.566Z,1.66
2022-12-08T22:30:20.149Z,1.65
2022-12-08T22:32:46.875Z,1.69
2022-12-08T22:35:13.671Z,1.70
2022-12-08T22:37:40.225Z,1.69
2022-12-08T22:40:07.883Z,1.68
2022-12-08T22:42:34.773Z,1.62
2022-12-08T22:45:01.471Z,1.56
2022-12-08T22:47:28.048Z,1.46
2022-12-08T22:49:54.591Z,1.44
2022-12-08T22:52:21.269Z,1.41
2022-12-08T22:54:47.987Z,1.37
2022-12-08T22:57:14.466Z,1.33
2022-12-08T22:59:40.981Z,1.27
2022-12-08T23:02:08.128Z,1.25
2022-12-08T23:04:35.590Z,1.18
2022-12-08T23:07:02.383Z,1.16
2022-12-08T23:09:28.697Z,1.10
2022-12-08T23:11:55.778Z,1.06
2022-12-08T23:14:22.255Z,1.04
2022-12-08T23:16:48.821Z,1.03
2022-12-08T23:19:15.453Z,1.00
2022-12-08T23:21:41.814Z,0.99
2022-12-08T23:24:08.278Z,0.96
2022-12-08T23:26:35.349Z,0.92
2022-12-08T23:29:02.246Z,0.88
2022-12-08T23:31:28.829Z,0.80
2022-12-08T23:33:55.581Z,0.71
2022-12-08T23:36:24.932Z,0.63
2022-12-08T23:38:52.021Z,0.55
2022-12-08T23:41:18.525Z,0.47
2022-12-08T23:43:47.435Z,0.37
2022-12-08T23:46:15.323Z,0.30
2022-12-08T23:48:42.159Z,0.23
2022-12-08T23:51:09.224Z,0.15
2022-12-08T23:53:35.819Z,0.12
2022-12-08T23:56:05.369Z,0.09
2022-12-08T23:58:32.039Z,0.05
